WABB/BIK METAR and TAF weather

Enter ICAO airport designator
Station Type Date Time Source
WABB METAR 2022/01/25 05:00 UTC NOAA

WABB 250500Z 12008KT 160V100 9999 SCT018 31/26 Q1006 RERA NOSIG


Station Type Date Time Source
WABB Decoded METAR 2022/01/25 05:00 UTC NOAA

Biak / Mokmer, Indonesia (WABB) 01-11S 136-07E 11M
Jan 25, 2022 - 12:00 AM EST / 2022.01.25 0500 UTC
Wind: from the ESE (120 degrees) at 9 MPH (8 KT) (direction variable):0
Visibility: greater than 7 mile(s):0
Sky conditions: partly cloudy
Temperature: 87 F (31 C)
Heat index: 99.7 F (37.6 C):1
Dew Point: 78 F (26 C)
Relative Humidity: 74%
Pressure (altimeter): 29.71 in. Hg (1006 hPa)
ob: WABB 250500Z 12008KT 160V100 9999 SCT018 31/26 Q1006 RERA NOSIG
cycle: 5

Station Type Date Time Source
WABB TAF 2022/01/25 06:13 UTC NOAA

TAF WABB 250500Z 2506/2612 09008KT 9999 SCT018
TEMPO 2506/2509 5000 RA

Example: see airport list